sensor_id;sensor_type;location;lat;lon;timestamp;pressure;altitude;pressure_sealevel;temperature;humidity
23996;BME280;12207;50.076;8.848;2023-11-19T00:00:26;99923.03;;;8.66;100.00
23996;BME280;12207;50.076;8.848;2023-11-19T00:02:52;99926.75;;;8.65;100.00
23996;BME280;12207;50.076;8.848;2023-11-19T00:05:18;99921.81;;;8.62;100.00
23996;BME280;12207;50.076;8.848;2023-11-19T00:07:45;99929.41;;;8.65;100.00
23996;BME280;12207;50.076;8.848;2023-11-19T00:10:12;99921.41;;;8.65;100.00
23996;BME280;12207;50.076;8.848;2023-11-19T00:12:43;99902.72;;;8.65;100.00
23996;BME280;12207;50.076;8.848;2023-11-19T00:15:13;99898.38;;;8.64;100.00
23996;BME280;12207;50.076;8.848;2023-11-19T00:17:46;99903.72;;;8.64;100.00
23996;BME280;12207;50.076;8.848;2023-11-19T00:20:14;99902.50;;;8.66;100.00
23996;BME280;12207;50.076;8.848;2023-11-19T00:22:41;99902.50;;;8.73;100.00
23996;BME280;12207;50.076;8.848;2023-11-19T00:25:08;99902.91;;;8.70;100.00
23996;BME280;12207;50.076;8.848;2023-11-19T00:27:35;99907.41;;;8.76;100.00
23996;BME280;12207;50.076;8.848;2023-11-19T00:30:04;99913.16;;;8.79;100.00
23996;BME280;12207;50.076;8.848;2023-11-19T00:32:32;99916.66;;;8.80;100.00
23996;BME280;12207;50.076;8.848;2023-11-19T00:35:01;99915.22;;;8.77;100.00
23996;BME280;12207;50.076;8.848;2023-11-19T00:37:27;99909.88;;;8.84;100.00
23996;BME280;12207;50.076;8.848;2023-11-19T00:39:56;99908.84;;;8.85;100.00
23996;BME280;12207;50.076;8.848;2023-11-19T00:42:22;99895.91;;;8.82;100.00
23996;BME280;12207;50.076;8.848;2023-11-19T00:44:52;99902.28;;;8.94;100.00
23996;BME280;12207;50.076;8.848;2023-11-19T00:47:19;99892.63;;;8.93;100.00
23996;BME280;12207;50.076;8.848;2023-11-19T00:49:49;99884.41;;;8.88;100.00
23996;BME280;12207;50.076;8.848;2023-11-19T00:52:19;99889.94;;;8.93;100.00
23996;BME280;12207;50.076;8.848;2023-11-19T00:54:45;99890.13;;;8.98;100.00
23996;BME280;12207;50.076;8.848;2023-11-19T00:57:11;99891.75;;;8.99;100.00
23996;BME280;12207;50.076;8.848;2023-11-19T00:59:37;99891.19;;;8.91;100.00
23996;BME280;12207;50.076;8.848;2023-11-19T01:02:04;99881.06;;;8.99;100.00
23996;BME280;12207;50.076;8.848;2023-11-19T01:04:35;99880.03;;;9.00;100.00
23996;BME280;12207;50.076;8.848;2023-11-19T01:07:02;99872.63;;;9.02;100.00
23996;BME280;12207;50.076;8.848;2023-11-19T01:09:32;99864.00;;;9.07;100.00
23996;BME280;12207;50.076;8.848;2023-11-19T01:12:00;99864.22;;;9.05;100.00
23996;BME280;12207;50.076;8.848;2023-11-19T01:14:27;99866.25;;;9.03;100.00
23996;BME280;12207;50.076;8.848;2023-11-19T01:16:53;99860.09;;;9.09;100.00
23996;BME280;12207;50.076;8.848;2023-11-19T01:19:23;99858.44;;;9.08;100.00
23996;BME280;12207;50.076;8.848;2023-11-19T01:21:51;99858.66;;;9.07;100.00
23996;BME280;12207;50.076;8.848;2023-11-19T01:24:17;99845.69;;;9.10;100.00
23996;BME280;12207;50.076;8.848;2023-11-19T01:26:44;99840.34;;;9.10;100.00
23996;BME280;12207;50.076;8.848;2023-11-19T01:29:16;99849.59;;;9.14;100.00
23996;BME280;12207;50.076;8.848;2023-11-19T01:31:43;99833.38;;;9.09;100.00
23996;BME280;12207;50.076;8.848;2023-11-19T01:34:09;99821.03;;;9.08;100.00
23996;BME280;12207;50.076;8.848;2023-11-19T01:36:36;99823.31;;;9.05;100.00
23996;BME280;12207;50.076;8.848;2023-11-19T01:39:02;99833.38;;;9.09;100.00
23996;BME280;12207;50.076;8.848;2023-11-19T01:41:33;99841.56;;;9.14;100.00
23996;BME280;12207;50.076;8.848;2023-11-19T01:43:59;99848.97;;;9.12;100.00
23996;BME280;12207;50.076;8.848;2023-11-19T01:46:26;99843.63;;;9.12;100.00
23996;BME280;12207;50.076;8.848;2023-11-19T01:48:53;99865.63;;;9.14;100.00
23996;BME280;12207;50.076;8.848;2023-11-19T01:51:20;99846.53;;;9.04;100.00
23996;BME280;12207;50.076;8.848;2023-11-19T01:53:47;99840.78;;;9.07;100.00
23996;BME280;12207;50.076;8.848;2023-11-19T01:56:15;99842.81;;;9.12;100.00
23996;BME280;12207;50.076;8.848;2023-11-19T01:58:43;99839.91;;;9.20;100.00
23996;BME280;12207;50.076;8.848;2023-11-19T02:01:11;99841.16;;;9.17;100.00
23996;BME280;12207;50.076;8.848;2023-11-19T02:03:38;99835.41;;;9.20;100.00
23996;BME280;12207;50.076;8.848;2023-11-19T02:06:05;99832.47;;;9.29;100.00
23996;BME280;12207;50.076;8.848;2023-11-19T02:08:31;99819.72;;;9.31;100.00
23996;BME280;12207;50.076;8.848;2023-11-19T02:11:00;99824.63;;;9.34;100.00
23996;BME280;12207;50.076;8.848;2023-11-19T02:13:27;99824.22;;;9.30;100.00
23996;BME280;12207;50.076;8.848;2023-11-19T02:15:54;99813.13;;;9.33;100.00
23996;BME280;12207;50.076;8.848;2023-11-19T02:18:25;99804.03;;;9.41;100.00
23996;BME280;12207;50.076;8.848;2023-11-19T02:20:54;99807.53;;;9.41;100.00
23996;BME280;12207;50.076;8.848;2023-11-19T02:23:21;99804.47;;;9.38;100.00
23996;BME280;12207;50.076;8.848;2023-11-19T02:28:35;99791.28;;;9.43;100.00
23996;BME280;12207;50.076;8.848;2023-11-19T02:31:01;99777.13;;;9.36;100.00
23996;BME280;12207;50.076;8.848;2023-11-19T02:33:27;99778.50;;;9.45;100.00
23996;BME280;12207;50.076;8.848;2023-11-19T02:35:54;99771.53;;;9.44;100.00
23996;BME280;12207;50.076;8.848;2023-11-19T02:38:20;99784.66;;;9.45;100.00
23996;BME280;12207;50.076;8.848;2023-11-19T02:40:47;99786.69;;;9.50;100.00
23996;BME280;12207;50.076;8.848;2023-11-19T02:43:15;99794.94;;;9.48;100.00
23996;BME280;12207;50.076;8.848;2023-11-19T02:45:41;99787.91;;;9.54;100.00
23996;BME280;12207;50.076;8.848;2023-11-19T02:48:08;99785.81;;;9.63;100.00
23996;BME280;12207;50.076;8.848;2023-11-19T02:50:35;99785.00;;;9.62;100.00
23996;BME280;12207;50.076;8.848;2023-11-19T02:53:02;99782.09;;;9.64;100.00
23996;BME280;12207;50.076;8.848;2023-11-19T02:55:29;99766.00;;;9.70;100.00
23996;BME280;12207;50.076;8.848;2023-11-19T02:58:00;99762.75;;;9.68;100.00
23996;BME280;12207;50.076;8.848;2023-11-19T03:00:26;99760.06;;;9.68;100.00
23996;BME280;12207;50.076;8.848;2023-11-19T03:03:01;99758.19;;;9.69;100.00
23996;BME280;12207;50.076;8.848;2023-11-19T03:05:46;99768.09;;;9.68;100.00
23996;BME280;12207;50.076;8.848;2023-11-19T03:08:13;99780.56;;;9.74;100.00
23996;BME280;12207;50.076;8.848;2023-11-19T03:10:39;99768.25;;;9.73;100.00
23996;BME280;12207;50.076;8.848;2023-11-19T03:13:05;99761.41;;;9.77;100.00
23996;BME280;12207;50.076;8.848;2023-11-19T03:15:31;99761.22;;;9.79;100.00
23996;BME280;12207;50.076;8.848;2023-11-19T03:17:57;99752.09;;;9.86;100.00
23996;BME280;12207;50.076;8.848;2023-11-19T03:20:23;99745.72;;;9.87;100.00
23996;BME280;12207;50.076;8.848;2023-11-19T03:22:53;99747.78;;;9.85;100.00
23996;BME280;12207;50.076;8.848;2023-11-19T03:25:19;99735.44;;;9.84;100.00
23996;BME280;12207;50.076;8.848;2023-11-19T03:27:45;99726.78;;;9.89;100.00
23996;BME280;12207;50.076;8.848;2023-11-19T03:30:11;99737.09;;;9.85;100.00
23996;BME280;12207;50.076;8.848;2023-11-19T03:32:38;99734.44;;;9.79;100.00
23996;BME280;12207;50.076;8.848;2023-11-19T03:35:05;99721.91;;;9.79;100.00
23996;BME280;12207;50.076;8.848;2023-11-19T03:37:33;99725.34;;;9.86;100.00
23996;BME280;12207;50.076;8.848;2023-11-19T03:39:59;99724.75;;;9.84;100.00
23996;BME280;12207;50.076;8.848;2023-11-19T03:42:26;99736.22;;;9.91;100.00
23996;BME280;12207;50.076;8.848;2023-11-19T03:44:53;99742.03;;;9.82;100.00
23996;BME280;12207;50.076;8.848;2023-11-19T03:47:19;99742.69;;;9.77;100.00
23996;BME280;12207;50.076;8.848;2023-11-19T03:49:50;99742.44;;;9.85;100.00
23996;BME280;12207;50.076;8.848;2023-11-19T03:52:17;99731.13;;;9.83;100.00
23996;BME280;12207;50.076;8.848;2023-11-19T03:54:43;99739.31;;;9.88;100.00
23996;BME280;12207;50.076;8.848;2023-11-19T03:57:09;99745.59;;;10.01;100.00
23996;BME280;12207;50.076;8.848;2023-11-19T03:59:36;99739.03;;;9.97;100.00
23996;BME280;12207;50.076;8.848;2023-11-19T04:02:02;99743.19;;;9.92;100.00
23996;BME280;12207;50.076;8.848;2023-11-19T04:04:29;99742.16;;;9.93;100.00
23996;BME280;12207;50.076;8.848;2023-11-19T04:06:59;99744.47;;;9.90;100.00
23996;BME280;12207;50.076;8.848;2023-11-19T04:09:26;99734.59;;;9.90;100.00
23996;BME280;12207;50.076;8.848;2023-11-19T04:11:52;99737.25;;;9.90;100.00
23996;BME280;12207;50.076;8.848;2023-11-19T04:14:18;99735.31;;;9.98;100.00
23996;BME280;12207;50.076;8.848;2023-11-19T04:16:45;99738.44;;;9.95;100.00
23996;BME280;12207;50.076;8.848;2023-11-19T04:19:11;99728.75;;;9.93;100.00
23996;BME280;12207;50.076;8.848;2023-11-19T04:21:40;99723.63;;;9.92;100.00
23996;BME280;12207;50.076;8.848;2023-11-19T04:24:08;99717.50;;;9.91;100.00
23996;BME280;12207;50.076;8.848;2023-11-19T04:26:35;99719.34;;;9.91;100.00
23996;BME280;12207;50.076;8.848;2023-11-19T04:29:02;99717.19;;;10.00;100.00
23996;BME280;12207;50.076;8.848;2023-11-19T04:31:31;99714.69;;;10.05;100.00
23996;BME280;12207;50.076;8.848;2023-11-19T04:34:00;99730.13;;;10.03;100.00
23996;BME280;12207;50.076;8.848;2023-11-19T04:36:26;99709.28;;;10.11;100.00
23996;BME280;12207;50.076;8.848;2023-11-19T04:38:53;99708.47;;;10.11;100.00
23996;BME280;12207;50.076;8.848;2023-11-19T04:41:19;99705.78;;;10.11;100.00
23996;BME280;12207;50.076;8.848;2023-11-19T04:43:45;99698.78;;;10.10;100.00
23996;BME280;12207;50.076;8.848;2023-11-19T04:46:11;99698.13;;;10.14;100.00
23996;BME280;12207;50.076;8.848;2023-11-19T04:48:37;99702.19;;;10.17;100.00
23996;BME280;12207;50.076;8.848;2023-11-19T04:51:05;99701.47;;;10.10;100.00
23996;BME280;12207;50.076;8.848;2023-11-19T04:53:31;99698.69;;;10.16;100.00
23996;BME280;12207;50.076;8.848;2023-11-19T04:55:57;99698.47;;;10.18;100.00
23996;BME280;12207;50.076;8.848;2023-11-19T04:58:25;99694.56;;;10.20;100.00
23996;BME280;12207;50.076;8.848;2023-11-19T05:00:53;99692.28;;;10.24;100.00
23996;BME280;12207;50.076;8.848;2023-11-19T05:03:20;99703.00;;;10.24;100.00
23996;BME280;12207;50.076;8.848;2023-11-19T05:05:46;99702.63;;;10.20;100.00
23996;BME280;12207;50.076;8.848;2023-11-19T05:08:12;99692.50;;;10.22;100.00
23996;BME280;12207;50.076;8.848;2023-11-19T05:10:38;99704.66;;;10.18;100.00
23996;BME280;12207;50.076;8.848;2023-11-19T05:13:04;99705.34;;;10.14;100.00
23996;BME280;12207;50.076;8.848;2023-11-19T05:15:30;99698.13;;;10.14;100.00
23996;BME280;12207;50.076;8.848;2023-11-19T05:17:56;99704.31;;;10.15;100.00
23996;BME280;12207;50.076;8.848;2023-11-19T05:20:22;99700.91;;;10.26;100.00
23996;BME280;12207;50.076;8.848;2023-11-19T05:22:51;99705.22;;;10.27;100.00
23996;BME280;12207;50.076;8.848;2023-11-19T05:25:19;99712.81;;;10.30;100.00
23996;BME280;12207;50.076;8.848;2023-11-19T05:27:46;99710.81;;;10.25;100.00
23996;BME280;12207;50.076;8.848;2023-11-19T05:30:12;99714.47;;;10.31;100.00
23996;BME280;12207;50.076;8.848;2023-11-19T05:32:38;99717.59;;;10.28;100.00
23996;BME280;12207;50.076;8.848;2023-11-19T05:35:05;99711.41;;;10.28;100.00
23996;BME280;12207;50.076;8.848;2023-11-19T05:37:31;99704.19;;;10.28;100.00
23996;BME280;12207;50.076;8.848;2023-11-19T05:39:57;99702.78;;;10.25;100.00
23996;BME280;12207;50.076;8.848;2023-11-19T05:42:25;99709.38;;;10.23;100.00
23996;BME280;12207;50.076;8.848;2023-11-19T05:44:56;99710.81;;;10.25;100.00
23996;BME280;12207;50.076;8.848;2023-11-19T05:47:23;99699.72;;;10.22;100.00
23996;BME280;12207;50.076;8.848;2023-11-19T05:49:49;99707.09;;;10.27;100.00
23996;BME280;12207;50.076;8.848;2023-11-19T05:52:15;99687.97;;;10.23;100.00
23996;BME280;12207;50.076;8.848;2023-11-19T05:54:42;99692.22;;;10.31;100.00
23996;BME280;12207;50.076;8.848;2023-11-19T05:57:08;99681.13;;;10.27;100.00
23996;BME280;12207;50.076;8.848;2023-11-19T05:59:39;99687.91;;;10.30;100.00
23996;BME280;12207;50.076;8.848;2023-11-19T06:02:05;99692.22;;;10.31;100.00
23996;BME280;12207;50.076;8.848;2023-11-19T06:04:31;99690.22;;;10.44;100.00
23996;BME280;12207;50.076;8.848;2023-11-19T06:06:57;99700.09;;;10.44;100.00
23996;BME280;12207;50.076;8.848;2023-11-19T06:09:23;99698.69;;;10.41;100.00
23996;BME280;12207;50.076;8.848;2023-11-19T06:11:52;99693.19;;;10.54;100.00
23996;BME280;12207;50.076;8.848;2023-11-19T06:14:19;99696.91;;;10.53;100.00
23996;BME280;12207;50.076;8.848;2023-11-19T06:16:45;99702.72;;;10.50;100.00
23996;BME280;12207;50.076;8.848;2023-11-19T06:19:11;99699.59;;;10.53;100.00
23996;BME280;12207;50.076;8.848;2023-11-19T06:21:37;99703.03;;;10.61;100.00
23996;BME280;12207;50.076;8.848;2023-11-19T06:24:04;99697.66;;;10.61;100.00
23996;BME280;12207;50.076;8.848;2023-11-19T06:26:33;99709.78;;;10.63;100.00
23996;BME280;12207;50.076;8.848;2023-11-19T06:28:59;99703.31;;;10.71;100.00
23996;BME280;12207;50.076;8.848;2023-11-19T06:31:26;99717.38;;;10.66;100.00
23996;BME280;12207;50.076;8.848;2023-11-19T06:33:52;99722.22;;;10.76;100.00
23996;BME280;12207;50.076;8.848;2023-11-19T06:36:18;99712.75;;;10.73;100.00
23996;BME280;12207;50.076;8.848;2023-11-19T06:38:44;99712.75;;;10.73;100.00
23996;BME280;12207;50.076;8.848;2023-11-19T06:41:10;99708.97;;;10.81;100.00
23996;BME280;12207;50.076;8.848;2023-11-19T06:43:37;99722.59;;;10.79;100.00
23996;BME280;12207;50.076;8.848;2023-11-19T06:46:04;99723.84;;;10.77;100.00
23996;BME280;12207;50.076;8.848;2023-11-19T06:48:32;99722.97;;;10.83;100.00
23996;BME280;12207;50.076;8.848;2023-11-19T06:50:59;99723.47;;;10.73;100.00
23996;BME280;12207;50.076;8.848;2023-11-19T06:53:25;99734.13;;;10.80;100.00
23996;BME280;12207;50.076;8.848;2023-11-19T06:55:51;99733.75;;;10.76;100.00
23996;BME280;12207;50.076;8.848;2023-11-19T06:58:17;99735.63;;;10.76;100.00
23996;BME280;12207;50.076;8.848;2023-11-19T07:00:43;99730.69;;;10.73;100.00
23996;BME280;12207;50.076;8.848;2023-11-19T07:03:10;99734.72;;;10.82;100.00
23996;BME280;12207;50.076;8.848;2023-11-19T07:05:37;99732.03;;;10.82;100.00
23996;BME280;12207;50.076;8.848;2023-11-19T07:08:06;99731.22;;;10.81;100.00
23996;BME280;12207;50.076;8.848;2023-11-19T07:10:38;99732.41;;;10.85;100.00
23996;BME280;12207;50.076;8.848;2023-11-19T07:13:04;99743.47;;;10.89;100.00
23996;BME280;12207;50.076;8.848;2023-11-19T07:15:37;99737.53;;;10.87;100.00
23996;BME280;12207;50.076;8.848;2023-11-19T07:18:03;99734.41;;;10.90;100.00
23996;BME280;12207;50.076;8.848;2023-11-19T07:20:29;99732.69;;;10.96;100.00
23996;BME280;12207;50.076;8.848;2023-11-19T07:22:56;99737.16;;;11.02;100.00
23996;BME280;12207;50.076;8.848;2023-11-19T07:25:23;99730.59;;;10.98;100.00
23996;BME280;12207;50.076;8.848;2023-11-19T07:27:50;99732.28;;;11.10;100.00
23996;BME280;12207;50.076;8.848;2023-11-19T07:30:17;99739.88;;;11.13;100.00
23996;BME280;12207;50.076;8.848;2023-11-19T07:32:43;99734.81;;;11.23;100.00
23996;BME280;12207;50.076;8.848;2023-11-19T07:35:09;99734.81;;;11.23;100.00
23996;BME280;12207;50.076;8.848;2023-11-19T07:37:36;99731.44;;;11.28;100.00
23996;BME280;12207;50.076;8.848;2023-11-19T07:40:02;99741.63;;;11.38;100.00
23996;BME280;12207;50.076;8.848;2023-11-19T07:42:29;99746.88;;;11.33;100.00
23996;BME280;12207;50.076;8.848;2023-11-19T07:44:55;99741.94;;;11.30;100.00
23996;BME280;12207;50.076;8.848;2023-11-19T07:47:22;99744.53;;;11.36;100.00
23996;BME280;12207;50.076;8.848;2023-11-19T07:49:50;99739.06;;;11.43;100.00
23996;BME280;12207;50.076;8.848;2023-11-19T07:52:16;99748.16;;;11.42;100.00
23996;BME280;12207;50.076;8.848;2023-11-19T07:54:42;99736.38;;;11.43;100.00
23996;BME280;12207;50.076;8.848;2023-11-19T07:57:08;99730.34;;;11.47;100.00
23996;BME280;12207;50.076;8.848;2023-11-19T07:59:34;99730.78;;;11.44;100.00
23996;BME280;12207;50.076;8.848;2023-11-19T08:02:00;99740.25;;;11.47;100.00
23996;BME280;12207;50.076;8.848;2023-11-19T08:04:26;99742.72;;;11.48;100.00
23996;BME280;12207;50.076;8.848;2023-11-19T08:06:52;99755.00;;;11.56;100.00
23996;BME280;12207;50.076;8.848;2023-11-19T08:09:18;99755.69;;;11.63;100.00
23996;BME280;12207;50.076;8.848;2023-11-19T08:11:44;99758.50;;;11.68;100.00
23996;BME280;12207;50.076;8.848;2023-11-19T08:14:11;99751.59;;;11.79;100.00
23996;BME280;12207;50.076;8.848;2023-11-19T08:16:39;99755.81;;;12.10;100.00
23996;BME280;12207;50.076;8.848;2023-11-19T08:19:05;99755.50;;;12.41;100.00
23996;BME280;12207;50.076;8.848;2023-11-19T08:21:31;99755.25;;;12.66;100.00
23996;BME280;12207;50.076;8.848;2023-11-19T08:24:00;99758.94;;;12.77;100.00
23996;BME280;12207;50.076;8.848;2023-11-19T08:26:26;99751.38;;;12.74;100.00
23996;BME280;12207;50.076;8.848;2023-11-19T08:28:52;99747.41;;;12.64;100.00
23996;BME280;12207;50.076;8.848;2023-11-19T08:31:21;99755.69;;;12.63;100.00
23996;BME280;12207;50.076;8.848;2023-11-19T08:33:47;99761.53;;;12.60;100.00
23996;BME280;12207;50.076;8.848;2023-11-19T08:36:16;99757.59;;;12.51;100.00
23996;BME280;12207;50.076;8.848;2023-11-19T08:38:43;99760.84;;;12.53;100.00
23996;BME280;12207;50.076;8.848;2023-11-19T08:41:09;99766.56;;;12.56;100.00
23996;BME280;12207;50.076;8.848;2023-11-19T08:43:36;99772.06;;;12.61;100.00
23996;BME280;12207;50.076;8.848;2023-11-19T08:46:02;99775.69;;;12.67;100.00
23996;BME280;12207;50.076;8.848;2023-11-19T08:48:28;99775.09;;;12.65;100.00
23996;BME280;12207;50.076;8.848;2023-11-19T08:50:54;99782.47;;;12.58;100.00
23996;BME280;12207;50.076;8.848;2023-11-19T08:53:20;99780.34;;;12.60;100.00
23996;BME280;12207;50.076;8.848;2023-11-19T08:55:47;99774.97;;;12.60;100.00
23996;BME280;12207;50.076;8.848;2023-11-19T08:58:13;99780.59;;;12.58;100.00
23996;BME280;12207;50.076;8.848;2023-11-19T09:00:39;99780.94;;;12.62;100.00
23996;BME280;12207;50.076;8.848;2023-11-19T09:03:05;99776.13;;;12.76;100.00
23996;BME280;12207;50.076;8.848;2023-11-19T09:05:31;99785.47;;;12.85;100.00
23996;BME280;12207;50.076;8.848;2023-11-19T09:07:57;99775.53;;;12.85;100.00
23996;BME280;12207;50.076;8.848;2023-11-19T09:10:23;99792.59;;;12.91;100.00
23996;BME280;12207;50.076;8.848;2023-11-19T09:12:49;99787.94;;;12.86;100.00
23996;BME280;12207;50.076;8.848;2023-11-19T09:15:15;99798.44;;;12.88;100.00
23996;BME280;12207;50.076;8.848;2023-11-19T09:17:41;99787.94;;;12.98;100.00
23996;BME280;12207;50.076;8.848;2023-11-19T09:20:08;99787.31;;;13.08;100.00
23996;BME280;12207;50.076;8.848;2023-11-19T09:22:34;99788.06;;;13.88;100.00
23996;BME280;12207;50.076;8.848;2023-11-19T09:25:00;99785.22;;;14.28;98.49
23996;BME280;12207;50.076;8.848;2023-11-19T09:27:26;99781.09;;;14.76;97.31
23996;BME280;12207;50.076;8.848;2023-11-19T09:29:52;99775.78;;;15.25;93.35
23996;BME280;12207;50.076;8.848;2023-11-19T09:32:23;99773.97;;;15.79;92.00
23996;BME280;12207;50.076;8.848;2023-11-19T09:34:49;99775.34;;;16.14;88.56
23996;BME280;12207;50.076;8.848;2023-11-19T09:37:18;99771.50;;;16.05;87.07
23996;BME280;12207;50.076;8.848;2023-11-19T09:39:44;99766.81;;;16.27;85.94
23996;BME280;12207;50.076;8.848;2023-11-19T09:42:11;99771.44;;;16.68;84.84
23996;BME280;12207;50.076;8.848;2023-11-19T09:44:38;99769.31;;;16.81;82.82
23996;BME280;12207;50.076;8.848;2023-11-19T09:47:07;99775.25;;;16.78;81.09
23996;BME280;12207;50.076;8.848;2023-11-19T09:49:36;99779.63;;;16.84;82.06
23996;BME280;12207;50.076;8.848;2023-11-19T09:52:02;99780.94;;;16.81;80.46
23996;BME280;12207;50.076;8.848;2023-11-19T09:54:29;99786.75;;;17.00;80.24
23996;BME280;12207;50.076;8.848;2023-11-19T09:56:58;99779.72;;;17.04;80.06
23996;BME280;12207;50.076;8.848;2023-11-19T09:59:30;99778.72;;;17.20;80.03
23996;BME280;12207;50.076;8.848;2023-11-19T10:01:57;99784.69;;;17.22;78.47
23996;BME280;12207;50.076;8.848;2023-11-19T10:04:23;99772.22;;;17.21;78.21
23996;BME280;12207;50.076;8.848;2023-11-19T10:06:51;99775.16;;;17.15;77.56
23996;BME280;12207;50.076;8.848;2023-11-19T10:09:17;99777.84;;;17.10;78.20
23996;BME280;12207;50.076;8.848;2023-11-19T10:11:46;99775.22;;;17.30;77.24
23996;BME280;12207;50.076;8.848;2023-11-19T10:14:12;99782.09;;;16.90;77.56
23996;BME280;12207;50.076;8.848;2023-11-19T10:16:39;99776.66;;;16.85;78.55
23996;BME280;12207;50.076;8.848;2023-11-19T10:19:06;99773.78;;;17.07;77.70
23996;BME280;12207;50.076;8.848;2023-11-19T10:21:33;99783.59;;;17.23;75.92
23996;BME280;12207;50.076;8.848;2023-11-19T10:24:00;99778.91;;;17.03;77.16
23996;BME280;12207;50.076;8.848;2023-11-19T10:26:26;99774.25;;;16.89;74.76
23996;BME280;12207;50.076;8.848;2023-11-19T10:28:53;99760.38;;;16.80;76.64
23996;BME280;12207;50.076;8.848;2023-11-19T10:31:21;99761.03;;;16.55;77.08
23996;BME280;12207;50.076;8.848;2023-11-19T10:33:51;99757.50;;;16.55;74.94
23996;BME280;12207;50.076;8.848;2023-11-19T10:36:18;99765.81;;;16.85;78.31
23996;BME280;12207;50.076;8.848;2023-11-19T10:38:59;99774.28;;;16.94;74.87
23996;BME280;12207;50.076;8.848;2023-11-19T10:41:32;99773.56;;;16.66;74.39
23996;BME280;12207;50.076;8.848;2023-11-19T10:44:01;99772.75;;;16.66;75.70
23996;BME280;12207;50.076;8.848;2023-11-19T10:46:38;99775.13;;;16.62;74.24
23996;BME280;12207;50.076;8.848;2023-11-19T10:49:08;99776.22;;;16.61;75.02
23996;BME280;12207;50.076;8.848;2023-11-19T10:51:34;99774.09;;;16.63;76.00
23996;BME280;12207;50.076;8.848;2023-11-19T10:54:05;99764.91;;;15.95;79.00
23996;BME280;12207;50.076;8.848;2023-11-19T10:56:32;99759.47;;;15.90;78.83
23996;BME280;12207;50.076;8.848;2023-11-19T10:59:00;99763.63;;;15.71;78.92
23996;BME280;12207;50.076;8.848;2023-11-19T11:01:43;99752.03;;;15.49;80.32
23996;BME280;12207;50.076;8.848;2023-11-19T11:04:22;99742.22;;;15.43;79.15
23996;BME280;12207;50.076;8.848;2023-11-19T11:06:49;99755.94;;;15.58;78.21
23996;BME280;12207;50.076;8.848;2023-11-19T11:09:16;99750.31;;;15.64;74.59
23996;BME280;12207;50.076;8.848;2023-11-19T11:11:47;99751.59;;;15.57;75.41
23996;BME280;12207;50.076;8.848;2023-11-19T11:14:13;99740.69;;;15.74;74.89
23996;BME280;12207;50.076;8.848;2023-11-19T11:16:43;99743.09;;;16.07;74.65
23996;BME280;12207;50.076;8.848;2023-11-19T11:19:13;99755.59;;;16.13;71.20
23996;BME280;12207;50.076;8.848;2023-11-19T11:21:43;99741.75;;;16.05;72.15
23996;BME280;12207;50.076;8.848;2023-11-19T11:24:53;99743.84;;;15.97;72.75
23996;BME280;12207;50.076;8.848;2023-11-19T11:27:53;99747.13;;;15.99;71.60
23996;BME280;12207;50.076;8.848;2023-11-19T11:30:46;99743.53;;;15.62;69.69
23996;BME280;12207;50.076;8.848;2023-11-19T11:33:48;99741.09;;;15.39;70.64
23996;BME280;12207;50.076;8.848;2023-11-19T11:36:25;99746.41;;;15.28;70.45
23996;BME280;12207;50.076;8.848;2023-11-19T11:38:51;99752.69;;;15.12;71.09
23996;BME280;12207;50.076;8.848;2023-11-19T11:41:25;99754.22;;;15.03;72.28
23996;BME280;12207;50.076;8.848;2023-11-19T11:43:52;99744.09;;;14.93;70.80
23996;BME280;12207;50.076;8.848;2023-11-19T11:49:04;99754.53;;;14.85;74.18
23996;BME280;12207;50.076;8.848;2023-11-19T11:57:11;99748.63;;;14.49;74.54
23996;BME280;12207;50.076;8.848;2023-11-19T11:59:45;99745.84;;;14.44;75.27
23996;BME280;12207;50.076;8.848;2023-11-19T12:02:14;99746.84;;;14.38;76.64
23996;BME280;12207;50.076;8.848;2023-11-19T12:04:43;99746.25;;;14.36;74.85
23996;BME280;12207;50.076;8.848;2023-11-19T12:07:16;99757.13;;;14.41;77.40
23996;BME280;12207;50.076;8.848;2023-11-19T12:09:47;99749.94;;;14.30;78.20
23996;BME280;12207;50.076;8.848;2023-11-19T12:12:26;99743.72;;;14.29;77.62
23996;BME280;12207;50.076;8.848;2023-11-19T12:20:08;99739.31;;;14.40;77.26
23996;BME280;12207;50.076;8.848;2023-11-19T12:22:42;99740.78;;;14.31;77.25
23996;BME280;12207;50.076;8.848;2023-11-19T12:25:10;99739.00;;;14.20;80.26
23996;BME280;12207;50.076;8.848;2023-11-19T12:27:41;99739.75;;;14.15;79.49
23996;BME280;12207;50.076;8.848;2023-11-19T12:30:08;99752.22;;;14.21;76.20
23996;BME280;12207;50.076;8.848;2023-11-19T12:32:41;99745.38;;;14.30;78.76
23996;BME280;12207;50.076;8.848;2023-11-19T12:35:13;99732.78;;;14.36;73.98
23996;BME280;12207;50.076;8.848;2023-11-19T12:37:47;99723.47;;;14.60;71.56
23996;BME280;12207;50.076;8.848;2023-11-19T12:40:21;99722.44;;;14.66;74.82
23996;BME280;12207;50.076;8.848;2023-11-19T12:42:48;99723.00;;;14.68;73.42
23996;BME280;12207;50.076;8.848;2023-11-19T12:45:15;99728.41;;;14.68;76.62
23996;BME280;12207;50.076;8.848;2023-11-19T12:47:43;99713.09;;;14.52;73.22
23996;BME280;12207;50.076;8.848;2023-11-19T12:50:10;99715.38;;;14.60;73.18
23996;BME280;12207;50.076;8.848;2023-11-19T12:52:37;99711.34;;;14.63;74.77
23996;BME280;12207;50.076;8.848;2023-11-19T12:55:25;99712.78;;;14.71;73.51
23996;BME280;12207;50.076;8.848;2023-11-19T12:57:52;99710.34;;;14.69;73.75
23996;BME280;12207;50.076;8.848;2023-11-19T13:00:22;99708.53;;;14.75;73.19
23996;BME280;12207;50.076;8.848;2023-11-19T13:02:53;99708.22;;;14.71;73.61
23996;BME280;12207;50.076;8.848;2023-11-19T13:08:00;99692.72;;;14.61;74.09
23996;BME280;12207;50.076;8.848;2023-11-19T13:10:27;99698.06;;;14.56;73.20
23996;BME280;12207;50.076;8.848;2023-11-19T13:13:05;99691.28;;;14.54;73.38
23996;BME280;12207;50.076;8.848;2023-11-19T13:15:32;99692.66;;;14.56;74.98
23996;BME280;12207;50.076;8.848;2023-11-19T13:17:59;99692.50;;;14.46;75.74